Time;durP1;ratioP1;P1;durP2;ratioP2;P2;SDS_P1;SDS_P2;PMS_P1;PMS_P2;Temp;Humidity;BMP_temperature;BMP_pressure;BME280_temperature;BME280_humidity;BME280_pressure;Samples;Min_cycle;Max_cycle;Signal;HPM_P1;HPM_P2
2022/06/09 00:02:22;;;;;;;2.53;1.20;;;20.30;64.20;;;;;;5079195;28;20031;-51
2022/06/09 00:04:48;;;;;;;1.20;1.00;;;20.30;63.40;;;;;;5082702;28;20052;-50
2022/06/09 00:07:15;;;;;;;1.20;1.10;;;20.30;63.70;;;;;;5079573;28;20067;-52
2022/06/09 00:09:42;;;;;;;;;;;20.30;63.00;;;;;;5079619;28;20048;-49
2022/06/09 00:12:08;;;;;;;1.05;1.02;;;20.20;63.20;;;;;;5062096;28;19908;-51
2022/06/09 00:14:35;;;;;;;1.50;1.40;;;20.20;65.00;;;;;;5080116;28;20110;-49
2022/06/09 00:17:01;;;;;;;1.38;1.27;;;20.20;65.70;;;;;;5060935;28;20107;-49
2022/06/09 00:19:27;;;;;;;1.48;1.38;;;20.20;66.50;;;;;;5080040;28;20032;-53
2022/06/09 00:21:54;;;;;;;1.42;1.33;;;20.30;67.00;;;;;;5080006;28;20032;-49
2022/06/09 00:24:20;;;;;;;1.98;1.23;;;20.30;67.70;;;;;;5079866;28;20087;-50
2022/06/09 00:26:47;;;;;;;1.40;1.30;;;20.30;68.10;;;;;;5081320;28;20032;-54
2022/06/09 00:29:13;;;;;;;;;;;20.30;68.30;;;;;;5079752;28;20731;-54
2022/06/09 00:31:39;;;;;;;1.42;1.33;;;20.30;68.40;;;;;;5080457;28;19912;-49
2022/06/09 00:34:05;;;;;;;1.80;1.27;;;20.40;67.80;;;;;;5077397;28;20032;-49
2022/06/09 00:36:33;;;;;;;1.50;1.20;;;20.40;67.10;;;;;;5082147;28;20789;-49
2022/06/09 00:38:59;;;;;;;1.30;1.20;;;20.40;66.10;;;;;;5079361;28;20028;-49
2022/06/09 00:41:27;;;;;;;1.13;1.02;;;20.40;66.00;;;;;;5081315;28;20091;-52
2022/06/09 00:44:14;;;;;;;1.38;1.27;;;20.40;65.80;;;;;;5083422;28;20032;-52
2022/06/09 00:46:40;;;;;;;2.30;1.63;;;20.40;65.90;;;;;;5066723;28;20035;-52
2022/06/09 00:49:18;;;;;;;1.40;1.30;;;20.40;65.20;;;;;;5083427;28;20044;-53
2022/06/09 00:51:46;;;;;;;1.83;1.33;;;20.40;65.30;;;;;;5083650;28;20040;-52
2022/06/09 00:54:33;;;;;;;1.25;1.15;;;20.40;65.20;;;;;;5051124;28;20029;-50
2022/06/09 00:57:07;;;;;;;1.50;1.40;;;20.40;66.00;;;;;;5066116;28;20033;-48
2022/06/09 00:59:34;;;;;;;1.63;1.52;;;20.40;66.50;;;;;;5064871;28;20033;-49
2022/06/09 01:02:01;;;;;;;1.80;1.70;;;20.50;67.20;;;;;;5064826;28;20032;-50
2022/06/09 01:04:27;;;;;;;1.60;1.48;;;20.40;67.30;;;;;;5064448;28;20043;-49
2022/06/09 01:06:58;;;;;;;1.85;1.70;;;20.40;67.20;;;;;;5046246;28;20029;-53
2022/06/09 01:09:25;;;;;;;1.60;1.40;;;20.40;67.10;;;;;;5064403;28;20044;-49
2022/06/09 01:11:53;;;;;;;2.45;1.40;;;20.40;66.50;;;;;;5081814;28;20029;-51
2022/06/09 01:14:25;;;;;;;1.65;1.50;;;20.40;65.90;;;;;;5082817;28;20596;-49
2022/06/09 01:17:13;;;;;;;1.40;1.30;;;20.40;65.40;;;;;;5058722;28;20036;-50
2022/06/09 01:20:08;;;;;;;1.52;1.42;;;20.40;65.20;;;;;;5082569;28;20044;-49
2022/06/09 01:22:51;;;;;;;2.22;1.70;;;20.40;65.10;;;;;;5080550;28;20047;-51
2022/06/09 01:25:58;;;;;;;3.05;1.50;;;20.40;65.10;;;;;;5049002;28;20797;-48
2022/06/09 01:28:27;;;;;;;1.58;1.48;;;20.40;66.50;;;;;;5080233;28;20041;-54
2022/06/09 01:31:04;;;;;;;1.75;1.45;;;20.40;67.50;;;;;;5082169;28;20036;-53
2022/06/09 01:33:54;;;;;;;1.60;1.50;;;20.40;68.70;;;;;;5065864;28;20036;-52
2022/06/09 01:36:33;;;;;;;1.45;1.35;;;20.40;69.00;;;;;;5070398;28;20024;-54
2022/06/09 01:39:03;;;;;;;1.63;1.50;;;20.40;69.20;;;;;;5080795;28;20040;-49
2022/06/09 01:41:30;;;;;;;1.75;1.63;;;20.40;69.20;;;;;;5083097;28;20512;-55
2022/06/09 01:43:56;;;;;;;1.90;1.70;;;20.40;69.30;;;;;;5083272;28;20060;-52
2022/06/09 01:46:33;;;;;;;1.70;1.45;;;20.40;69.40;;;;;;5063912;28;20028;-52
2022/06/09 01:49:23;;;;;;;1.70;1.60;;;20.50;69.50;;;;;;5078701;28;20056;-54
2022/06/09 01:51:50;;;;;;;1.50;1.40;;;20.50;69.70;;;;;;5043382;28;20032;-52
2022/06/09 01:54:25;;;;;;;1.50;1.40;;;20.50;69.70;;;;;;5049681;28;20039;-52
2022/06/09 01:56:54;;;;;;;2.65;1.58;;;20.50;69.60;;;;;;5080611;28;20025;-51
2022/06/09 01:59:29;;;;;;;1.45;1.35;;;20.60;69.70;;;;;;5048125;28;20032;-48
2022/06/09 02:02:09;;;;;;;1.52;1.42;;;20.60;69.90;;;;;;5048020;28;20145;-50
2022/06/09 02:04:40;;;;;;;1.55;1.33;;;20.60;70.00;;;;;;5063655;28;20036;-49
2022/06/09 02:07:07;;;;;;;1.50;1.40;;;20.60;69.90;;;;;;5065056;28;20067;-49
2022/06/09 02:09:33;;;;;;;1.58;1.45;;;20.60;70.00;;;;;;5046380;28;20584;-51
2022/06/09 02:12:03;;;;;;;1.60;1.38;;;20.70;70.00;;;;;;5061871;28;20028;-50
2022/06/09 02:14:29;;;;;;;1.80;1.70;;;20.70;70.00;;;;;;5062561;28;20032;-51
2022/06/09 02:16:57;;;;;;;1.40;1.30;;;20.70;69.90;;;;;;5083016;28;20818;-51
2022/06/09 02:19:25;;;;;;;1.85;1.48;;;20.80;69.90;;;;;;5083097;28;20044;-50
2022/06/09 02:21:54;;;;;;;1.50;1.40;;;20.80;69.80;;;;;;5078035;28;20049;-52
2022/06/09 02:24:20;;;;;;;1.58;1.42;;;20.80;69.70;;;;;;5081194;28;20052;-53
2022/06/09 02:26:46;;;;;;;1.65;1.48;;;20.90;69.70;;;;;;5083616;28;20108;-50
2022/06/09 02:29:14;;;;;;;1.60;1.50;;;20.90;69.60;;;;;;5081253;28;20029;-51
2022/06/09 02:31:41;;;;;;;1.67;1.58;;;20.90;69.50;;;;;;5078523;28;20017;-52
2022/06/09 02:34:09;;;;;;;1.35;1.25;;;20.90;69.40;;;;;;5081181;28;20028;-53
2022/06/09 02:36:35;;;;;;;2.05;1.35;;;20.90;69.30;;;;;;5082105;28;20036;-52
2022/06/09 02:39:02;;;;;;;1.60;1.50;;;21.00;69.30;;;;;;5081682;28;20502;-52
2022/06/09 02:41:28;;;;;;;1.60;1.50;;;21.00;69.20;;;;;;5080106;28;20020;-53
2022/06/09 02:43:55;;;;;;;1.40;1.30;;;21.00;69.10;;;;;;5081267;28;20028;-50
2022/06/09 02:46:21;;;;;;;;;;;21.00;69.00;;;;;;5062623;28;20032;-54
2022/06/09 02:48:48;;;;;;;1.73;1.60;;;21.00;69.00;;;;;;5080754;28;20594;-49
2022/06/09 02:51:33;;;;;;;;;;;21.10;68.90;;;;;;5080655;28;20037;-48
2022/06/09 02:54:04;;;;;;;1.33;1.23;;;21.10;68.90;;;;;;5079960;28;19909;-48
2022/06/09 02:56:30;;;;;;;1.67;1.38;;;21.10;68.90;;;;;;5080931;28;20055;-50
2022/06/09 02:58:57;;;;;;;1.63;1.52;;;21.20;69.00;;;;;;5080386;28;20062;-53
2022/06/09 03:01:28;;;;;;;1.50;1.40;;;21.20;69.10;;;;;;5081319;28;20028;-51
2022/06/09 03:03:55;;;;;;;1.60;1.50;;;21.20;69.00;;;;;;5074934;28;20036;-54
2022/06/09 03:06:22;;;;;;;1.45;1.30;;;21.20;68.90;;;;;;5079340;28;20036;-51
2022/06/09 03:08:49;;;;;;;1.42;1.33;;;21.30;68.80;;;;;;5081338;28;20028;-50
2022/06/09 03:11:15;;;;;;;1.50;1.30;;;21.30;68.80;;;;;;5080141;28;20032;-53
2022/06/09 03:13:41;;;;;;;1.77;1.50;;;21.30;68.60;;;;;;5080042;28;20048;-52
2022/06/09 03:16:08;;;;;;;2.08;1.88;;;21.30;68.50;;;;;;5080407;28;20034;-48
2022/06/09 03:18:34;;;;;;;1.60;1.50;;;21.30;68.50;;;;;;5079467;28;20055;-48
2022/06/09 03:21:00;;;;;;;2.92;1.50;;;21.30;68.40;;;;;;5080884;28;20020;-50
2022/06/09 03:23:27;;;;;;;2.00;1.50;;;21.40;68.50;;;;;;5079030;28;20048;-49
2022/06/09 03:25:53;;;;;;;1.60;1.50;;;21.40;68.40;;;;;;5082568;28;20706;-45
2022/06/09 03:28:19;;;;;;;1.60;1.45;;;21.40;68.40;;;;;;5080449;28;20348;-45
2022/06/09 03:30:45;;;;;;;1.60;1.50;;;21.40;68.30;;;;;;5084890;28;20594;-48
2022/06/09 03:33:12;;;;;;;1.48;1.35;;;21.50;68.20;;;;;;5082367;28;20028;-45
2022/06/09 03:35:38;;;;;;;1.52;1.42;;;21.50;68.10;;;;;;5077727;28;20055;-46
2022/06/09 03:38:04;;;;;;;2.85;1.48;;;21.50;68.00;;;;;;5079941;28;20051;-46
2022/06/09 03:40:31;;;;;;;1.88;1.40;;;21.50;68.00;;;;;;5075660;28;20032;-47
2022/06/09 03:42:58;;;;;;;2.13;1.50;;;21.50;67.90;;;;;;5081177;28;20032;-47
2022/06/09 03:45:24;;;;;;;1.77;1.67;;;21.50;68.00;;;;;;5073918;28;20056;-48
2022/06/09 03:47:50;;;;;;;1.50;1.40;;;21.50;67.90;;;;;;5078998;28;20056;-50
2022/06/09 03:50:19;;;;;;;2.88;1.33;;;21.60;67.90;;;;;;5079433;28;20030;-51
2022/06/09 03:52:45;;;;;;;3.58;1.67;;;21.60;67.80;;;;;;5080125;28;20083;-51
2022/06/09 03:55:11;;;;;;;1.60;1.48;;;21.60;67.80;;;;;;5079612;28;20044;-49
2022/06/09 03:57:37;;;;;;;2.67;1.70;;;21.60;67.80;;;;;;5081831;28;20032;-48
2022/06/09 04:00:05;;;;;;;2.42;1.75;;;21.60;67.80;;;;;;5076209;28;20052;-51
2022/06/09 04:02:31;;;;;;;2.55;1.65;;;21.60;67.80;;;;;;5079785;28;20036;-47
2022/06/09 04:04:59;;;;;;;1.73;1.40;;;21.70;67.80;;;;;;5081150;28;20029;-52
2022/06/09 04:07:44;;;;;;;1.70;1.60;;;21.70;67.80;;;;;;5035883;28;20069;-56
2022/06/09 04:10:22;;;;;;;1.77;1.67;;;21.70;67.80;;;;;;5037103;28;20045;-56
2022/06/09 04:12:48;;;;;;;1.98;1.48;;;21.70;68.20;;;;;;5035555;28;20088;-57
2022/06/09 04:15:15;;;;;;;2.53;1.70;;;21.80;68.40;;;;;;5036074;28;20060;-56
2022/06/09 04:17:42;;;;;;;2.35;1.65;;;21.80;68.40;;;;;;5038134;28;20040;-55
2022/06/09 04:20:09;;;;;;;2.78;2.10;;;21.80;68.20;;;;;;5037069;28;20041;-53
2022/06/09 04:22:35;;;;;;;1.83;1.73;;;21.80;68.20;;;;;;5035020;28;20063;-53
2022/06/09 04:25:01;;;;;;;1.80;1.70;;;21.80;68.00;;;;;;5036881;28;20049;-53
2022/06/09 04:27:27;;;;;;;1.90;1.50;;;21.80;68.00;;;;;;5034058;28;20030;-52
2022/06/09 04:29:53;;;;;;;2.75;1.40;;;21.90;68.00;;;;;;5035955;28;20037;-50
2022/06/09 04:32:19;;;;;;;1.80;1.70;;;21.90;67.90;;;;;;5036888;28;20029;-48
2022/06/09 04:34:45;;;;;;;2.17;1.30;;;21.90;67.90;;;;;;5036549;28;20048;-46
2022/06/09 04:37:11;;;;;;;1.58;1.40;;;21.90;67.80;;;;;;5035336;28;20034;-50
2022/06/09 04:39:38;;;;;;;2.50;1.67;;;21.90;67.80;;;;;;5031903;28;20029;-48
2022/06/09 04:42:04;;;;;;;2.10;1.90;;;21.90;67.70;;;;;;5036050;28;20037;-50
2022/06/09 04:44:30;;;;;;;1.73;1.60;;;21.90;67.70;;;;;;5049729;28;20042;-47
2022/06/09 04:46:56;;;;;;;1.92;1.60;;;21.90;67.80;;;;;;5077831;28;20838;-49
2022/06/09 04:49:22;;;;;;;2.30;1.48;;;21.90;67.80;;;;;;5078000;28;20047;-49
2022/06/09 04:51:48;;;;;;;1.90;1.70;;;22.00;67.80;;;;;;5080648;28;20024;-50
2022/06/09 04:54:14;;;;;;;1.75;1.35;;;22.00;67.90;;;;;;5079847;28;20032;-47
2022/06/09 04:56:40;;;;;;;1.70;1.60;;;22.00;67.90;;;;;;5076088;28;20039;-52
2022/06/09 04:59:06;;;;;;;2.30;1.73;;;22.00;68.00;;;;;;5080617;28;20031;-51
2022/06/09 05:01:33;;;;;;;1.70;1.60;;;22.00;68.30;;;;;;5076158;28;20020;-52
2022/06/09 05:03:59;;;;;;;2.92;2.05;;;22.00;68.30;;;;;;5079333;28;20043;-54
2022/06/09 05:06:26;;;;;;;4.10;1.70;;;22.00;68.30;;;;;;5072783;28;20579;-53
2022/06/09 05:08:53;;;;;;;1.90;1.70;;;22.00;68.20;;;;;;5075667;28;20713;-51
2022/06/09 05:11:20;;;;;;;2.08;1.70;;;22.10;68.60;;;;;;5070016;28;20078;-50
2022/06/09 05:13:46;;;;;;;2.83;1.80;;;22.10;68.70;;;;;;5078927;28;20044;-50
2022/06/09 05:16:12;;;;;;;1.70;1.60;;;22.10;68.50;;;;;;5079718;28;20046;-51
2022/06/09 05:18:38;;;;;;;2.28;1.45;;;22.10;69.20;;;;;;5078036;28;20080;-50
2022/06/09 05:21:05;;;;;;;1.77;1.67;;;22.10;68.50;;;;;;5077089;28;20096;-53
2022/06/09 05:23:31;;;;;;;1.55;1.40;;;22.10;68.40;;;;;;5082145;28;20048;-52
2022/06/09 05:25:58;;;;;;;2.00;1.58;;;22.10;68.40;;;;;;5078034;28;20067;-54
2022/06/09 05:28:25;;;;;;;2.13;1.65;;;22.10;68.40;;;;;;5081731;28;20050;-52
2022/06/09 05:30:52;;;;;;;1.52;1.40;;;22.10;68.40;;;;;;5081456;28;20052;-51
2022/06/09 05:33:18;;;;;;;3.72;1.45;;;22.20;68.50;;;;;;5080053;28;20036;-53
2022/06/09 05:35:44;;;;;;;1.67;1.50;;;22.20;68.50;;;;;;5085517;28;20035;-49
2022/06/09 05:46:43;;;;;;;1.50;1.40;;;22.20;68.30;;;;;;4997775;28;20030;-47
2022/06/09 05:49:09;;;;;;;1.95;1.70;;;22.20;68.20;;;;;;4997640;28;20614;-48
2022/06/09 05:51:35;;;;;;;1.80;1.47;;;22.20;68.20;;;;;;5008781;28;20046;-52
2022/06/09 05:54:02;;;;;;;1.95;1.52;;;22.20;68.20;;;;;;5005475;28;20052;-52
2022/06/09 05:56:28;;;;;;;1.92;1.63;;;22.20;68.10;;;;;;5004189;28;20038;-45
2022/06/09 05:58:55;;;;;;;1.70;1.58;;;22.20;68.00;;;;;;4997022;28;20069;-47
2022/06/09 06:01:21;;;;;;;2.15;1.40;;;22.20;68.00;;;;;;5000322;28;20049;-47
2022/06/09 06:03:47;;;;;;;1.65;1.48;;;22.30;68.00;;;;;;5004097;28;20077;-51
2022/06/09 06:08:58;;;;;;;2.13;1.70;;;22.30;67.90;;;;;;5004314;28;20116;-50
2022/06/09 06:11:24;;;;;;;1.98;1.40;;;22.30;67.70;;;;;;5002184;28;20105;-53
2022/06/09 06:13:50;;;;;;;1.65;1.40;;;22.30;67.60;;;;;;5001927;28;20126;-52
2022/06/09 06:16:16;;;;;;;1.93;1.60;;;22.30;67.50;;;;;;5075751;28;20048;-48
2022/06/09 06:18:42;;;;;;;2.08;1.60;;;22.30;67.40;;;;;;5082933;28;20497;-49
2022/06/09 06:21:09;;;;;;;2.03;1.55;;;22.30;67.30;;;;;;5080853;28;20040;-50
2022/06/09 06:23:35;;;;;;;2.13;1.73;;;22.30;67.30;;;;;;5082999;28;20192;-49
2022/06/09 06:26:01;;;;;;;3.80;1.60;;;22.30;67.20;;;;;;5083395;28;20036;-49
2022/06/09 06:28:28;;;;;;;1.60;1.20;;;22.30;67.10;;;;;;5078293;28;20094;-49
2022/06/09 06:30:54;;;;;;;3.17;1.45;;;22.30;67.00;;;;;;5081640;28;20066;-50
2022/06/09 06:33:20;;;;;;;1.58;1.30;;;22.30;67.60;;;;;;5082977;28;20059;-53
2022/06/09 06:35:47;;;;;;;1.80;1.48;;;22.30;66.80;;;;;;5082231;28;20047;-47
2022/06/09 06:38:15;;;;;;;2.20;1.35;;;22.30;66.80;;;;;;5082996;28;20105;-50
2022/06/09 06:40:41;;;;;;;2.13;1.40;;;22.30;66.70;;;;;;5078207;28;20092;-51
2022/06/09 06:43:07;;;;;;;2.00;1.50;;;22.30;66.60;;;;;;5081617;28;20035;-53
2022/06/09 06:45:33;;;;;;;1.73;1.60;;;22.30;66.50;;;;;;5077898;28;20034;-52
2022/06/09 06:47:59;;;;;;;1.42;1.30;;;22.30;66.50;;;;;;5080094;28;20051;-52
2022/06/09 06:50:26;;;;;;;1.65;1.55;;;22.40;66.50;;;;;;5081347;28;20521;-51
2022/06/09 06:52:52;;;;;;;1.70;1.40;;;22.30;66.40;;;;;;5081337;28;20032;-51
2022/06/09 06:55:19;;;;;;;1.40;1.27;;;22.40;66.30;;;;;;5079098;28;20032;-47
2022/06/09 06:57:45;;;;;;;1.52;1.35;;;22.40;67.10;;;;;;5081641;28;20032;-49
2022/06/09 07:00:15;;;;;;;1.83;1.42;;;22.40;66.30;;;;;;5080229;28;20036;-48
2022/06/09 07:02:41;;;;;;;1.30;1.20;;;22.40;66.30;;;;;;5080110;28;20080;-49
2022/06/09 07:05:08;;;;;;;2.53;1.40;;;22.40;66.20;;;;;;5078710;28;20084;-50
2022/06/09 07:07:35;;;;;;;1.35;1.13;;;22.40;66.20;;;;;;5080138;28;20039;-51
2022/06/09 07:10:03;;;;;;;1.42;1.33;;;22.40;66.20;;;;;;5079141;28;20100;-51
2022/06/09 07:12:30;;;;;;;2.22;1.42;;;22.40;66.10;;;;;;5078958;28;20025;-48
2022/06/09 07:14:56;;;;;;;1.50;1.40;;;22.40;66.10;;;;;;5082249;28;20028;-50
2022/06/09 07:17:22;;;;;;;1.73;1.50;;;22.40;66.10;;;;;;5082494;28;20032;-45
2022/06/09 07:19:48;;;;;;;1.38;1.27;;;22.40;66.10;;;;;;5080007;28;20041;-48
2022/06/09 07:22:14;;;;;;;2.85;1.38;;;22.40;66.10;;;;;;5085501;28;20025;-48
2022/06/09 07:24:41;;;;;;;2.13;1.50;;;22.40;66.00;;;;;;5082552;28;20040;-52
2022/06/09 07:27:07;;;;;;;2.17;1.30;;;22.40;66.00;;;;;;5098603;28;20032;-49
2022/06/09 07:29:34;;;;;;;1.75;1.27;;;22.40;66.10;;;;;;5083254;28;20040;-51
2022/06/09 07:32:00;;;;;;;1.20;1.10;;;22.40;66.00;;;;;;5080582;28;20028;-48
2022/06/09 07:34:26;;;;;;;1.57;1.47;;;22.40;66.00;;;;;;5085074;28;20037;-46
2022/06/09 07:36:53;;;;;;;1.33;1.20;;;22.40;66.10;;;;;;5101051;28;20519;-46
2022/06/09 07:39:19;;;;;;;1.67;1.38;;;22.40;66.10;;;;;;5101456;28;20146;-48
2022/06/09 07:41:45;;;;;;;2.67;1.30;;;22.40;66.10;;;;;;5087176;28;20031;-46
2022/06/09 07:44:12;;;;;;;1.60;1.50;;;22.40;66.10;;;;;;5094240;28;20036;-50
2022/06/09 07:46:39;;;;;;;1.50;1.40;;;22.40;66.20;;;;;;5072419;28;20050;-47
2022/06/09 07:49:06;;;;;;;2.53;1.13;;;22.40;66.10;;;;;;5073492;28;20363;-41
2022/06/09 07:51:32;;;;;;;2.60;1.40;;;22.40;66.30;;;;;;5056523;28;20045;-41
2022/06/09 07:53:58;;;;;;;1.20;1.10;;;22.40;65.70;;;;;;5082875;28;20028;-47
2022/06/09 07:56:24;;;;;;;1.83;1.42;;;22.40;65.30;;;;;;5098122;28;20038;-44
2022/06/09 07:58:50;;;;;;;1.15;1.05;;;22.40;65.10;;;;;;5087164;28;20028;-43
2022/06/09 08:01:18;;;;;;;1.23;1.13;;;22.40;65.10;;;;;;5079243;28;20024;-43
2022/06/09 08:03:46;;;;;;;1.50;1.40;;;22.40;65.00;;;;;;5075328;28;20043;-43
2022/06/09 08:06:13;;;;;;;1.48;1.20;;;22.40;65.00;;;;;;5098615;28;20036;-45
2022/06/09 08:08:39;;;;;;;1.88;1.20;;;22.40;65.00;;;;;;5098645;28;20020;-44
2022/06/09 08:11:07;;;;;;;5.88;1.48;;;22.40;65.10;;;;;;5084171;28;20035;-56
2022/06/09 08:13:33;;;;;;;4.65;1.38;;;22.40;66.30;;;;;;5086285;28;20028;-58
2022/06/09 08:16:00;;;;;;;5.50;1.67;;;22.40;66.30;;;;;;5078326;28;20031;-54
2022/06/09 08:18:27;;;;;;;2.50;1.42;;;22.40;66.40;;;;;;5064777;28;20032;-54
2022/06/09 08:20:53;;;;;;;4.97;1.55;;;22.40;66.30;;;;;;5081895;28;20051;-54
2022/06/09 08:23:22;;;;;;;6.03;1.67;;;22.40;66.30;;;;;;5074288;28;20048;-46
2022/06/09 08:25:50;;;;;;;2.88;1.52;;;22.40;66.20;;;;;;5070829;28;20052;-57
2022/06/09 08:28:18;;;;;;;4.80;1.60;;;22.40;66.20;;;;;;5075673;28;20029;-45
2022/06/09 08:30:49;;;;;;;3.42;1.33;;;22.40;66.10;;;;;;5078265;28;20096;-58
2022/06/09 08:33:15;;;;;;;2.63;1.50;;;22.40;66.30;;;;;;5077221;28;20020;-58
2022/06/09 08:35:41;;;;;;;4.35;1.65;;;22.40;66.30;;;;;;5091994;28;20682;-58
2022/06/09 08:38:07;;;;;;;3.42;1.58;;;22.40;66.10;;;;;;5098074;28;20024;-57
2022/06/09 08:40:53;;;;;;;2.40;1.50;;;22.40;66.00;;;;;;5102420;28;20051;-58
2022/06/09 08:43:24;;;;;;;1.73;1.40;;;22.40;66.00;;;;;;5085302;28;20032;-58
2022/06/09 08:45:53;;;;;;;3.60;1.40;;;22.40;65.90;;;;;;5102697;28;20136;-58
2022/06/09 08:48:22;;;;;;;4.68;1.63;;;22.40;65.80;;;;;;5101519;28;20016;-58
2022/06/09 08:51:02;;;;;;;3.63;1.30;;;22.40;65.70;;;;;;5083316;28;20060;-58
2022/06/09 08:53:34;;;;;;;1.70;1.20;;;22.50;65.60;;;;;;5067394;28;20052;-57
2022/06/09 08:56:26;;;;;;;1.70;1.30;;;22.40;65.40;;;;;;5084858;28;20093;-58
2022/06/09 08:59:02;;;;;;;1.73;1.20;;;22.50;65.40;;;;;;5080466;28;20044;-59
2022/06/09 09:01:37;;;;;;;2.25;1.60;;;22.40;65.30;;;;;;5067753;28;20032;-58
2022/06/09 09:04:27;;;;;;;2.25;1.50;;;22.50;65.30;;;;;;5066968;28;20031;-59
2022/06/09 09:07:30;;;;;;;2.28;1.30;;;22.50;65.30;;;;;;5085233;28;20066;-58
2022/06/09 09:10:28;;;;;;;3.47;1.40;;;22.50;65.20;;;;;;5087492;28;20066;-58
2022/06/09 09:13:01;;;;;;;1.50;1.40;;;22.50;65.20;;;;;;5037512;28;20104;-58
2022/06/09 09:15:42;;;;;;;2.15;1.48;;;22.40;65.00;;;;;;5069453;28;20040;-56
2022/06/09 09:18:44;;;;;;;3.13;1.48;;;22.40;64.90;;;;;;5088404;28;20047;-57
2022/06/09 09:21:38;;;;;;;1.58;1.30;;;22.40;64.90;;;;;;5081303;28;20064;-58
2022/06/09 09:24:09;;;;;;;3.28;1.40;;;22.40;64.80;;;;;;5085620;28;20102;-58
2022/06/09 09:26:54;;;;;;;1.92;1.40;;;22.40;64.90;;;;;;5085317;28;20028;-58
2022/06/09 09:29:46;;;;;;;1.73;1.30;;;22.40;64.80;;;;;;5074355;28;20077;-58
2022/06/09 09:32:18;;;;;;;3.17;1.50;;;22.40;64.70;;;;;;5076288;28;20088;-59
2022/06/09 09:34:45;;;;;;;1.58;1.40;;;22.40;64.60;;;;;;5066608;28;20044;-58
2022/06/09 09:37:12;;;;;;;1.55;1.33;;;22.40;64.50;;;;;;5067223;28;20025;-58
2022/06/09 09:39:53;;;;;;;1.30;1.20;;;22.40;64.50;;;;;;5088306;28;20047;-58
2022/06/09 09:42:24;;;;;;;2.90;1.50;;;22.40;64.80;;;;;;5080611;28;20039;-58
2022/06/09 09:45:14;;;;;;;1.92;1.42;;;22.40;64.40;;;;;;5064001;28;20024;-58
2022/06/09 09:48:11;;;;;;;2.10;1.38;;;22.40;64.40;;;;;;5082026;28;20035;-57
2022/06/09 09:50:56;;;;;;;1.38;1.13;;;22.40;64.50;;;;;;5063718;28;20044;-58
2022/06/09 09:53:40;;;;;;;2.22;1.40;;;22.40;64.50;;;;;;5063797;28;20036;-59
2022/06/09 09:56:19;;;;;;;2.20;1.33;;;22.40;64.50;;;;;;5085399;28;20032;-58
2022/06/09 09:58:48;;;;;;;3.15;1.67;;;22.40;64.40;;;;;;5083463;28;20035;-58
2022/06/09 10:01:17;;;;;;;2.47;1.48;;;22.40;64.50;;;;;;5078124;28;20027;-58
2022/06/09 10:09:45;;;;;;;1.90;1.48;;;22.40;64.20;;;;;;5065331;28;20058;-58
2022/06/09 10:12:16;;;;;;;2.20;1.42;;;22.40;64.30;;;;;;5064373;28;20043;-58
2022/06/09 10:14:48;;;;;;;1.35;1.25;;;22.40;64.10;;;;;;5066147;28;20580;-58
2022/06/09 10:17:35;;;;;;;1.55;1.38;;;22.40;64.10;;;;;;5082302;28;20039;-58
2022/06/09 10:20:09;;;;;;;2.80;1.58;;;22.30;64.00;;;;;;5065505;28;20037;-58
2022/06/09 10:22:37;;;;;;;3.22;1.40;;;22.40;64.10;;;;;;5066939;28;20032;-58
2022/06/09 10:25:28;;;;;;;2.03;1.20;;;22.30;64.00;;;;;;5081540;28;20063;-58
2022/06/09 10:28:00;;;;;;;2.10;1.27;;;22.30;64.20;;;;;;5082682;28;20029;-58
2022/06/09 10:30:29;;;;;;;1.80;1.15;;;22.30;64.10;;;;;;5068034;28;20218;-57
2022/06/09 10:33:21;;;;;;;1.90;1.20;;;22.30;64.00;;;;;;5063697;28;20060;-59
2022/06/09 10:35:55;;;;;;;2.15;1.40;;;22.30;64.00;;;;;;5059510;28;20798;-58
2022/06/09 10:38:39;;;;;;;1.50;1.33;;;22.30;63.90;;;;;;5080244;28;20084;-59
2022/06/09 10:41:13;;;;;;;1.83;1.27;;;22.30;64.00;;;;;;5082219;28;20025;-58
2022/06/09 10:43:45;;;;;;;1.52;1.40;;;22.30;63.90;;;;;;5064311;28;20033;-58
2022/06/09 10:46:29;;;;;;;3.00;1.20;;;22.30;63.90;;;;;;5081972;28;20033;-58
2022/06/09 10:55:15;;;;;;;1.85;1.30;;;22.30;63.90;;;;;;5070134;28;20031;-58
2022/06/09 10:58:11;;;;;;;2.58;1.25;;;22.30;63.80;;;;;;5065587;28;20039;-58
2022/06/09 11:00:40;;;;;;;3.03;1.30;;;22.30;63.80;;;;;;5080161;28;20047;-57
2022/06/09 11:03:30;;;;;;;1.90;1.40;;;22.20;63.70;;;;;;5062278;28;20059;-59
2022/06/09 11:05:59;;;;;;;2.22;1.25;;;22.20;63.80;;;;;;5063082;28;20033;-59
2022/06/09 11:08:53;;;;;;;3.22;1.58;;;22.20;63.80;;;;;;5083148;28;20028;-57
2022/06/09 11:11:41;;;;;;;1.42;1.23;;;22.20;63.70;;;;;;5081228;28;20043;-59
2022/06/09 11:14:19;;;;;;;2.15;1.30;;;22.20;63.70;;;;;;5067508;28;20024;-59
2022/06/09 11:17:10;;;;;;;1.70;1.10;;;22.20;63.80;;;;;;5081729;28;20028;-58
2022/06/09 11:19:46;;;;;;;1.85;1.42;;;22.20;63.70;;;;;;5083275;28;20044;-58
2022/06/09 11:22:32;;;;;;;1.63;1.30;;;22.20;63.70;;;;;;5062704;28;20028;-59
2022/06/09 11:25:20;;;;;;;1.50;1.30;;;22.20;63.80;;;;;;5038406;28;20080;-58
2022/06/09 11:28:16;;;;;;;1.60;1.27;;;22.20;63.70;;;;;;5080740;28;20037;-58
2022/06/09 11:30:55;;;;;;;3.25;1.27;;;22.20;63.70;;;;;;5080539;28;20039;-59
2022/06/09 11:33:47;;;;;;;1.67;1.20;;;22.20;63.80;;;;;;5061959;28;20032;-59
2022/06/09 11:36:16;;;;;;;2.33;1.40;;;22.20;63.70;;;;;;5080358;28;20115;-59
2022/06/09 11:39:09;;;;;;;2.88;1.27;;;22.20;63.80;;;;;;5080672;28;20489;-58
2022/06/09 11:41:50;;;;;;;1.58;1.13;;;22.10;63.60;;;;;;5080856;28;20025;-57
2022/06/09 11:44:24;;;;;;;1.77;1.25;;;22.20;63.70;;;;;;5079707;28;20060;-59
2022/06/09 11:46:51;;;;;;;1.83;1.13;;;22.10;63.60;;;;;;5063313;28;20032;-59
2022/06/09 11:49:23;;;;;;;1.58;1.48;;;22.10;63.60;;;;;;5080750;28;20052;-58
2022/06/09 11:51:49;;;;;;;1.58;1.15;;;22.10;63.50;;;;;;5081076;28;20044;-59
2022/06/09 11:54:36;;;;;;;2.40;1.20;;;22.10;63.60;;;;;;5062720;28;20397;-57
2022/06/09 11:57:34;;;;;;;3.35;1.38;;;22.10;63.60;;;;;;5079875;28;20028;-58
2022/06/09 12:00:33;;;;;;;1.42;1.10;;;22.10;63.70;;;;;;5065568;28;20049;-58
2022/06/09 12:03:36;;;;;;;2.15;1.00;;;22.10;63.70;;;;;;4975506;28;20031;-59
2022/06/09 12:06:30;;;;;;;1.15;1.05;;;22.10;63.80;;;;;;4979875;28;20058;-57
2022/06/09 12:09:04;;;;;;;3.20;1.30;;;22.10;63.60;;;;;;4966682;28;20042;-59
2022/06/09 12:11:53;;;;;;;2.35;1.20;;;22.10;63.60;;;;;;4994910;28;20038;-59
2022/06/09 12:14:37;;;;;;;2.65;1.40;;;22.10;63.70;;;;;;4979230;28;20030;-59
2022/06/09 12:17:22;;;;;;;1.63;1.30;;;22.10;63.70;;;;;;4998945;28;20054;-59
2022/06/09 12:19:57;;;;;;;1.10;1.00;;;22.10;63.70;;;;;;4993301;28;20045;-59
2022/06/09 12:22:42;;;;;;;2.22;1.30;;;22.10;63.70;;;;;;4993444;28;20035;-59
2022/06/09 12:25:09;;;;;;;1.52;1.20;;;22.10;63.80;;;;;;4996356;28;20464;-59
2022/06/09 12:27:37;;;;;;;2.03;1.40;;;22.00;63.70;;;;;;4996503;28;20058;-59
2022/06/09 12:30:03;;;;;;;2.45;1.02;;;22.00;63.70;;;;;;4998415;28;20646;-60
2022/06/09 12:32:56;;;;;;;1.30;1.20;;;22.00;63.70;;;;;;4995894;28;20066;-58
2022/06/09 12:35:35;;;;;;;1.48;1.30;;;22.00;63.70;;;;;;4999430;28;20039;-59
2022/06/09 12:38:05;;;;;;;1.40;1.20;;;22.00;63.70;;;;;;5008134;28;20096;-60
2022/06/09 12:40:42;;;;;;;1.08;1.00;;;22.00;63.70;;;;;;5069946;28;20046;-59
2022/06/09 12:43:22;;;;;;;1.20;1.00;;;22.10;63.70;;;;;;5085671;28;20020;-58
2022/06/09 12:45:59;;;;;;;1.83;1.33;;;22.00;63.80;;;;;;5086774;28;20071;-59
2022/06/09 12:48:28;;;;;;;1.63;1.13;;;22.00;63.80;;;;;;5087594;28;20035;-59
2022/06/09 12:50:55;;;;;;;3.63;1.20;;;22.00;63.80;;;;;;5086052;28;20048;-59
2022/06/09 12:53:36;;;;;;;2.22;1.00;;;22.00;63.80;;;;;;5087066;28;20031;-59
2022/06/09 12:56:37;;;;;;;3.20;1.17;;;22.00;63.80;;;;;;5068191;28;20103;-59
2022/06/09 12:59:25;;;;;;;2.17;1.33;;;22.00;63.90;;;;;;5047219;28;20028;-60
2022/06/09 13:02:03;;;;;;;3.03;1.27;;;22.00;63.80;;;;;;5086560;28;20071;-59
2022/06/09 13:04:31;;;;;;;1.58;1.48;;;22.00;63.90;;;;;;5086205;28;20029;-57
2022/06/09 13:06:57;;;;;;;1.27;1.10;;;22.00;64.00;;;;;;5068727;28;20032;-58
2022/06/09 13:09:33;;;;;;;1.70;1.30;;;22.00;64.10;;;;;;5088133;28;20075;-59
2022/06/09 13:14:49;;;;;;;1.38;1.27;;;22.00;64.30;;;;;;5070985;28;20066;-60
2022/06/09 13:17:21;;;;;;;1.77;1.25;;;22.00;64.40;;;;;;5070038;28;20047;-59
2022/06/09 13:19:56;;;;;;;2.88;1.20;;;22.00;64.60;;;;;;5069505;28;20044;-59
2022/06/09 13:22:22;;;;;;;1.00;0.90;;;22.10;64.80;;;;;;5068953;28;20074;-57
2022/06/09 13:24:49;;;;;;;1.65;1.20;;;22.00;64.90;;;;;;5068035;28;20099;-60
2022/06/09 13:27:17;;;;;;;2.20;1.30;;;22.00;65.00;;;;;;5068620;28;20074;-59
2022/06/09 13:30:01;;;;;;;1.00;0.90;;;22.10;65.20;;;;;;5086768;28;20096;-60
2022/06/09 13:32:34;;;;;;;1.75;1.17;;;22.10;65.40;;;;;;5084180;28;20121;-59
2022/06/09 13:35:00;;;;;;;1.40;1.30;;;22.10;65.50;;;;;;5067526;28;20032;-59
2022/06/09 13:37:39;;;;;;;1.57;1.17;;;22.10;65.70;;;;;;5068971;28;20027;-59
2022/06/09 13:40:19;;;;;;;1.60;1.30;;;22.10;65.70;;;;;;5087797;28;20102;-59